sensor_id;sensor_type;location;lat;lon;timestamp;pressure;altitude;pressure_sealevel;temperature;humidity
46876;BME280;32866;50.160;14.768;2023-03-26T00:02:13;98465.06;;;7.28;100.00
46876;BME280;32866;50.160;14.768;2023-03-26T00:04:39;98468.97;;;7.27;100.00
46876;BME280;32866;50.160;14.768;2023-03-26T00:07:06;98470.50;;;7.28;100.00
46876;BME280;32866;50.160;14.768;2023-03-26T00:09:31;98481.09;;;7.26;100.00
46876;BME280;32866;50.160;14.768;2023-03-26T00:11:57;98482.16;;;7.29;100.00
46876;BME280;32866;50.160;14.768;2023-03-26T00:14:22;98481.59;;;7.34;100.00
46876;BME280;32866;50.160;14.768;2023-03-26T00:16:47;98487.06;;;7.47;100.00
46876;BME280;32866;50.160;14.768;2023-03-26T00:19:13;98489.56;;;7.54;100.00
46876;BME280;32866;50.160;14.768;2023-03-26T00:21:38;98490.53;;;7.60;100.00
46876;BME280;32866;50.160;14.768;2023-03-26T00:24:05;98495.66;;;7.58;100.00
46876;BME280;32866;50.160;14.768;2023-03-26T00:26:31;98498.72;;;7.60;100.00
46876;BME280;32866;50.160;14.768;2023-03-26T00:28:57;98500.44;;;7.67;98.88
46876;BME280;32866;50.160;14.768;2023-03-26T00:31:24;98495.75;;;7.67;98.48
46876;BME280;32866;50.160;14.768;2023-03-26T00:33:49;98493.56;;;7.75;97.65
46876;BME280;32866;50.160;14.768;2023-03-26T00:36:19;98492.56;;;7.69;98.24
46876;BME280;32866;50.160;14.768;2023-03-26T00:38:44;98488.78;;;7.66;98.44
46876;BME280;32866;50.160;14.768;2023-03-26T00:41:11;98489.53;;;7.67;98.40
46876;BME280;32866;50.160;14.768;2023-03-26T00:43:46;98489.78;;;7.59;99.09
46876;BME280;32866;50.160;14.768;2023-03-26T00:46:12;98492.28;;;7.54;99.40
46876;BME280;32866;50.160;14.768;2023-03-26T00:48:38;98485.75;;;7.38;100.00
46876;BME280;32866;50.160;14.768;2023-03-26T00:51:06;98486.19;;;7.50;100.00
46876;BME280;32866;50.160;14.768;2023-03-26T00:53:32;98490.66;;;7.56;99.07
46876;BME280;32866;50.160;14.768;2023-03-26T00:55:58;98491.41;;;7.57;98.94
46876;BME280;32866;50.160;14.768;2023-03-26T00:58:25;98484.44;;;7.56;98.51
46876;BME280;32866;50.160;14.768;2023-03-26T01:00:55;98484.31;;;7.59;97.98
46876;BME280;32866;50.160;14.768;2023-03-26T01:03:21;98487.06;;;7.59;98.08
46876;BME280;32866;50.160;14.768;2023-03-26T01:05:50;98489.00;;;7.59;98.00
46876;BME280;32866;50.160;14.768;2023-03-26T01:10:51;98482.16;;;7.54;98.75
46876;BME280;32866;50.160;14.768;2023-03-26T01:13:18;98484.31;;;7.59;98.35
46876;BME280;32866;50.160;14.768;2023-03-26T01:15:44;98482.78;;;7.58;98.78
46876;BME280;32866;50.160;14.768;2023-03-26T01:18:14;98483.31;;;7.66;98.33
46876;BME280;32866;50.160;14.768;2023-03-26T01:20:41;98481.22;;;7.70;97.88
46876;BME280;32866;50.160;14.768;2023-03-26T01:23:11;98481.22;;;7.70;97.79
46876;BME280;32866;50.160;14.768;2023-03-26T01:25:37;98485.72;;;7.64;98.38
46876;BME280;32866;50.160;14.768;2023-03-26T01:28:05;98471.13;;;7.58;99.28
46876;BME280;32866;50.160;14.768;2023-03-26T01:30:50;98478.00;;;7.63;98.46
46876;BME280;32866;50.160;14.768;2023-03-26T01:33:31;98472.97;;;7.61;98.80
46876;BME280;32866;50.160;14.768;2023-03-26T01:40:58;98462.63;;;7.56;98.99
46876;BME280;32866;50.160;14.768;2023-03-26T01:43:30;98470.59;;;7.50;99.66
46876;BME280;32866;50.160;14.768;2023-03-26T01:46:00;98469.16;;;7.46;99.95
46876;BME280;32866;50.160;14.768;2023-03-26T01:48:37;98463.31;;;7.34;100.00
46876;BME280;32866;50.160;14.768;2023-03-26T01:51:04;98461.03;;;7.33;100.00
46876;BME280;32866;50.160;14.768;2023-03-26T01:53:29;98455.03;;;7.25;100.00
46876;BME280;32866;50.160;14.768;2023-03-26T01:56:05;98459.16;;;7.17;100.00
46876;BME280;32866;50.160;14.768;2023-03-26T01:58:56;98474.22;;;7.09;100.00
46876;BME280;32866;50.160;14.768;2023-03-26T02:03:57;98471.06;;;7.10;100.00
46876;BME280;32866;50.160;14.768;2023-03-26T02:06:30;98466.38;;;7.11;100.00
46876;BME280;32866;50.160;14.768;2023-03-26T02:09:02;98458.53;;;7.13;100.00
46876;BME280;32866;50.160;14.768;2023-03-26T02:11:29;98458.75;;;7.05;100.00
46876;BME280;32866;50.160;14.768;2023-03-26T02:13:55;98472.25;;;6.96;100.00
46876;BME280;32866;50.160;14.768;2023-03-26T02:16:20;98475.84;;;6.93;100.00
46876;BME280;32866;50.160;14.768;2023-03-26T02:18:46;98472.81;;;6.91;100.00
46876;BME280;32866;50.160;14.768;2023-03-26T02:21:19;98472.47;;;6.89;100.00
46876;BME280;32866;50.160;14.768;2023-03-26T02:23:46;98471.16;;;6.81;100.00
46876;BME280;32866;50.160;14.768;2023-03-26T02:26:13;98478.47;;;6.84;100.00
46876;BME280;32866;50.160;14.768;2023-03-26T02:28:39;98477.47;;;6.78;100.00
46876;BME280;32866;50.160;14.768;2023-03-26T02:31:05;98476.81;;;6.74;100.00
46876;BME280;32866;50.160;14.768;2023-03-26T02:33:33;98473.09;;;6.67;100.00
46876;BME280;32866;50.160;14.768;2023-03-26T02:35:59;98474.72;;;6.65;100.00
46876;BME280;32866;50.160;14.768;2023-03-26T02:38:26;98476.38;;;6.62;100.00
46876;BME280;32866;50.160;14.768;2023-03-26T02:40:52;98473.94;;;6.52;100.00
46876;BME280;32866;50.160;14.768;2023-03-26T02:43:17;98472.97;;;6.58;100.00
46876;BME280;32866;50.160;14.768;2023-03-26T02:45:43;98473.75;;;6.59;100.00
46876;BME280;32866;50.160;14.768;2023-03-26T02:48:08;98480.06;;;6.56;100.00
46876;BME280;32866;50.160;14.768;2023-03-26T02:50:33;98473.63;;;6.62;100.00
46876;BME280;32866;50.160;14.768;2023-03-26T02:53:01;98470.78;;;6.53;100.00
46876;BME280;32866;50.160;14.768;2023-03-26T02:55:26;98473.22;;;6.64;100.00
46876;BME280;32866;50.160;14.768;2023-03-26T02:57:51;98456.88;;;6.64;100.00
46876;BME280;32866;50.160;14.768;2023-03-26T03:00:16;98456.44;;;6.65;100.00
46876;BME280;32866;50.160;14.768;2023-03-26T03:02:41;98460.38;;;6.77;100.00
46876;BME280;32866;50.160;14.768;2023-03-26T03:05:08;98455.47;;;6.85;100.00
46876;BME280;32866;50.160;14.768;2023-03-26T03:07:33;98464.09;;;6.96;100.00
46876;BME280;32866;50.160;14.768;2023-03-26T03:10:03;98450.03;;;7.11;100.00
46876;BME280;32866;50.160;14.768;2023-03-26T03:12:32;98446.09;;;7.12;100.00
46876;BME280;32866;50.160;14.768;2023-03-26T03:14:57;98457.56;;;7.19;100.00
46876;BME280;32866;50.160;14.768;2023-03-26T03:17:23;98464.41;;;7.24;100.00
46876;BME280;32866;50.160;14.768;2023-03-26T03:19:48;98456.78;;;7.19;100.00
46876;BME280;32866;50.160;14.768;2023-03-26T03:22:13;98452.63;;;7.27;100.00
46876;BME280;32866;50.160;14.768;2023-03-26T03:24:38;98458.06;;;7.27;100.00
46876;BME280;32866;50.160;14.768;2023-03-26T03:27:04;98447.94;;;7.28;100.00
46876;BME280;32866;50.160;14.768;2023-03-26T03:29:29;98457.53;;;7.32;100.00
46876;BME280;32866;50.160;14.768;2023-03-26T03:31:54;98453.28;;;7.31;100.00
46876;BME280;32866;50.160;14.768;2023-03-26T03:34:20;98456.00;;;7.31;100.00
46876;BME280;32866;50.160;14.768;2023-03-26T03:36:45;98451.44;;;7.28;100.00
46876;BME280;32866;50.160;14.768;2023-03-26T03:39:12;98454.59;;;7.27;100.00
46876;BME280;32866;50.160;14.768;2023-03-26T03:41:37;98452.75;;;7.23;100.00
46876;BME280;32866;50.160;14.768;2023-03-26T03:44:02;98458.31;;;7.20;100.00
46876;BME280;32866;50.160;14.768;2023-03-26T03:46:28;98462.88;;;7.23;100.00
46876;BME280;32866;50.160;14.768;2023-03-26T03:48:53;98453.16;;;7.22;100.00
46876;BME280;32866;50.160;14.768;2023-03-26T03:51:18;98455.91;;;7.22;100.00
46876;BME280;32866;50.160;14.768;2023-03-26T03:53:43;98455.03;;;7.25;100.00
46876;BME280;32866;50.160;14.768;2023-03-26T03:56:10;98457.97;;;7.31;100.00
46876;BME280;32866;50.160;14.768;2023-03-26T03:58:37;98456.66;;;7.35;100.00
46876;BME280;32866;50.160;14.768;2023-03-26T04:01:03;98449.81;;;7.31;100.00
46876;BME280;32866;50.160;14.768;2023-03-26T04:03:28;98458.19;;;7.36;100.00
46876;BME280;32866;50.160;14.768;2023-03-26T04:05:54;98462.09;;;7.35;100.00
46876;BME280;32866;50.160;14.768;2023-03-26T04:08:22;98458.19;;;7.36;100.00
46876;BME280;32866;50.160;14.768;2023-03-26T04:10:48;98461.22;;;7.38;100.00
46876;BME280;32866;50.160;14.768;2023-03-26T04:13:13;98465.25;;;7.47;100.00
46876;BME280;32866;50.160;14.768;2023-03-26T04:15:39;98459.03;;;7.46;100.00
46876;BME280;32866;50.160;14.768;2023-03-26T04:18:05;98459.03;;;7.46;100.00
46876;BME280;32866;50.160;14.768;2023-03-26T04:20:34;98457.50;;;7.45;100.00
46876;BME280;32866;50.160;14.768;2023-03-26T04:22:59;98458.25;;;7.46;100.00
46876;BME280;32866;50.160;14.768;2023-03-26T04:25:25;98464.06;;;7.48;100.00
46876;BME280;32866;50.160;14.768;2023-03-26T04:27:54;98463.28;;;7.47;100.00
46876;BME280;32866;50.160;14.768;2023-03-26T04:30:22;98449.78;;;7.43;100.00
46876;BME280;32866;50.160;14.768;2023-03-26T04:32:48;98464.69;;;7.52;100.00
46876;BME280;32866;50.160;14.768;2023-03-26T04:35:13;98457.94;;;7.56;100.00
46876;BME280;32866;50.160;14.768;2023-03-26T04:37:40;98454.09;;;7.54;100.00
46876;BME280;32866;50.160;14.768;2023-03-26T04:40:08;98452.59;;;7.53;100.00
46876;BME280;32866;50.160;14.768;2023-03-26T04:42:36;98457.38;;;7.49;100.00
46876;BME280;32866;50.160;14.768;2023-03-26T04:45:05;98450.31;;;7.51;100.00
46876;BME280;32866;50.160;14.768;2023-03-26T04:47:31;98454.34;;;7.47;100.00
46876;BME280;32866;50.160;14.768;2023-03-26T04:49:56;98449.13;;;7.39;100.00
46876;BME280;32866;50.160;14.768;2023-03-26T04:52:21;98438.56;;;7.41;100.00
46876;BME280;32866;50.160;14.768;2023-03-26T04:54:47;98436.69;;;7.38;100.00
46876;BME280;32866;50.160;14.768;2023-03-26T04:57:26;98445.00;;;7.35;100.00
46876;BME280;32866;50.160;14.768;2023-03-26T04:59:52;98443.25;;;7.28;100.00
46876;BME280;32866;50.160;14.768;2023-03-26T05:02:18;98441.84;;;7.23;100.00
46876;BME280;32866;50.160;14.768;2023-03-26T05:04:44;98453.94;;;7.22;100.00
46876;BME280;32866;50.160;14.768;2023-03-26T05:07:18;98442.72;;;7.20;100.00
46876;BME280;32866;50.160;14.768;2023-03-26T05:09:44;98450.00;;;7.23;100.00
46876;BME280;32866;50.160;14.768;2023-03-26T05:12:09;98443.59;;;7.17;100.00
46876;BME280;32866;50.160;14.768;2023-03-26T05:14:34;98439.97;;;7.20;100.00
46876;BME280;32866;50.160;14.768;2023-03-26T05:17:00;98448.38;;;7.13;100.00
46876;BME280;32866;50.160;14.768;2023-03-26T05:19:29;98449.38;;;7.06;100.00
46876;BME280;32866;50.160;14.768;2023-03-26T05:21:55;98440.88;;;7.04;100.00
46876;BME280;32866;50.160;14.768;2023-03-26T05:24:20;98435.31;;;7.08;100.00
46876;BME280;32866;50.160;14.768;2023-03-26T05:26:45;98442.38;;;7.18;100.00
46876;BME280;32866;50.160;14.768;2023-03-26T05:29:11;98444.78;;;7.29;100.00
46876;BME280;32866;50.160;14.768;2023-03-26T05:31:37;98437.59;;;7.22;100.00
46876;BME280;32866;50.160;14.768;2023-03-26T05:34:02;98439.34;;;7.29;100.00
46876;BME280;32866;50.160;14.768;2023-03-26T05:36:27;98433.34;;;7.34;100.00
46876;BME280;32866;50.160;14.768;2023-03-26T05:38:53;98444.31;;;7.43;100.00
46876;BME280;32866;50.160;14.768;2023-03-26T05:41:18;98434.59;;;7.55;100.00
46876;BME280;32866;50.160;14.768;2023-03-26T05:43:43;98437.19;;;7.59;100.00
46876;BME280;32866;50.160;14.768;2023-03-26T05:46:13;98440.56;;;7.63;100.00
46876;BME280;32866;50.160;14.768;2023-03-26T05:48:38;98438.03;;;7.69;100.00
46876;BME280;32866;50.160;14.768;2023-03-26T05:51:04;98439.56;;;7.70;100.00
46876;BME280;32866;50.160;14.768;2023-03-26T05:53:29;98439.00;;;7.75;100.00
46876;BME280;32866;50.160;14.768;2023-03-26T05:55:55;98440.56;;;7.76;100.00
46876;BME280;32866;50.160;14.768;2023-03-26T05:58:24;98446.75;;;7.76;100.00
46876;BME280;32866;50.160;14.768;2023-03-26T06:00:55;98437.69;;;7.79;100.00
46876;BME280;32866;50.160;14.768;2023-03-26T06:03:22;98428.63;;;7.83;100.00
46876;BME280;32866;50.160;14.768;2023-03-26T06:05:49;98430.44;;;7.86;100.00
46876;BME280;32866;50.160;14.768;2023-03-26T06:08:15;98435.25;;;7.94;100.00
46876;BME280;32866;50.160;14.768;2023-03-26T06:10:40;98439.47;;;7.95;100.00
46876;BME280;32866;50.160;14.768;2023-03-26T06:13:05;98448.75;;;7.98;100.00
46876;BME280;32866;50.160;14.768;2023-03-26T06:15:30;98440.44;;;8.02;100.00
46876;BME280;32866;50.160;14.768;2023-03-26T06:17:56;98429.31;;;7.96;100.00
46876;BME280;32866;50.160;14.768;2023-03-26T06:20:21;98438.88;;;8.13;100.00
46876;BME280;32866;50.160;14.768;2023-03-26T06:22:46;98438.59;;;8.21;100.00
46876;BME280;32866;50.160;14.768;2023-03-26T06:25:11;98433.75;;;8.69;99.22
46876;BME280;32866;50.160;14.768;2023-03-26T06:27:37;98435.63;;;8.81;97.66
46876;BME280;32866;50.160;14.768;2023-03-26T06:30:02;98434.47;;;8.91;96.27
46876;BME280;32866;50.160;14.768;2023-03-26T06:32:27;98426.44;;;9.47;93.33
46876;BME280;32866;50.160;14.768;2023-03-26T06:34:52;98412.31;;;9.67;90.12
46876;BME280;32866;50.160;14.768;2023-03-26T06:37:18;98425.97;;;9.58;90.56
46876;BME280;32866;50.160;14.768;2023-03-26T06:39:43;98430.63;;;9.29;91.12
46876;BME280;32866;50.160;14.768;2023-03-26T06:42:08;98434.66;;;9.93;87.54
46876;BME280;32866;50.160;14.768;2023-03-26T06:44:33;98440.25;;;10.27;86.01
46876;BME280;32866;50.160;14.768;2023-03-26T06:46:58;98435.97;;;10.53;84.11
46876;BME280;32866;50.160;14.768;2023-03-26T06:49:24;98441.63;;;9.66;86.80
46876;BME280;32866;50.160;14.768;2023-03-26T06:51:49;98436.00;;;9.70;89.03
46876;BME280;32866;50.160;14.768;2023-03-26T06:54:14;98433.25;;;9.52;87.26
46876;BME280;32866;50.160;14.768;2023-03-26T06:56:40;98434.81;;;9.62;87.63
46876;BME280;32866;50.160;14.768;2023-03-26T06:59:05;98438.47;;;10.05;85.77
46876;BME280;32866;50.160;14.768;2023-03-26T07:01:31;98440.88;;;10.40;83.88
46876;BME280;32866;50.160;14.768;2023-03-26T07:03:56;98440.91;;;9.94;84.46
46876;BME280;32866;50.160;14.768;2023-03-26T07:06:22;98445.59;;;10.39;82.18
46876;BME280;32866;50.160;14.768;2023-03-26T07:08:47;98437.22;;;9.78;85.02
46876;BME280;32866;50.160;14.768;2023-03-26T07:11:13;98441.34;;;9.55;86.64
46876;BME280;32866;50.160;14.768;2023-03-26T07:13:38;98444.97;;;9.61;87.85
46876;BME280;32866;50.160;14.768;2023-03-26T07:16:04;98446.22;;;9.60;88.09
46876;BME280;32866;50.160;14.768;2023-03-26T07:18:29;98448.31;;;9.56;88.70
46876;BME280;32866;50.160;14.768;2023-03-26T07:20:55;98441.91;;;9.41;89.44
46876;BME280;32866;50.160;14.768;2023-03-26T07:23:20;98446.13;;;9.33;88.98
46876;BME280;32866;50.160;14.768;2023-03-26T07:25:46;98426.09;;;9.36;89.66
46876;BME280;32866;50.160;14.768;2023-03-26T07:33:15;98436.13;;;9.39;88.83
46876;BME280;32866;50.160;14.768;2023-03-26T07:45:50;98426.13;;;9.82;85.73
46876;BME280;32866;50.160;14.768;2023-03-26T07:50:42;98420.81;;;9.78;89.57
46876;BME280;32866;50.160;14.768;2023-03-26T07:53:08;98420.53;;;10.04;84.55
46876;BME280;32866;50.160;14.768;2023-03-26T07:55:34;98401.22;;;10.08;83.61
46876;BME280;32866;50.160;14.768;2023-03-26T07:58:12;98415.22;;;10.00;83.92
46876;BME280;32866;50.160;14.768;2023-03-26T08:00:41;98408.47;;;10.29;83.99
46876;BME280;32866;50.160;14.768;2023-03-26T08:05:36;98401.81;;;10.02;84.29
46876;BME280;32866;50.160;14.768;2023-03-26T08:18:30;98401.66;;;10.06;84.44
46876;BME280;32866;50.160;14.768;2023-03-26T08:23:44;98405.78;;;10.11;84.42
46876;BME280;32866;50.160;14.768;2023-03-26T08:26:32;98404.81;;;10.42;85.42
46876;BME280;32866;50.160;14.768;2023-03-26T08:31:43;98405.63;;;10.14;83.71
46876;BME280;32866;50.160;14.768;2023-03-26T08:34:10;98398.47;;;10.08;83.92
46876;BME280;32866;50.160;14.768;2023-03-26T08:36:36;98397.81;;;10.22;83.61
46876;BME280;32866;50.160;14.768;2023-03-26T08:39:01;98392.34;;;10.40;83.43
46876;BME280;32866;50.160;14.768;2023-03-26T08:52:01;98393.31;;;11.04;75.11
46876;BME280;32866;50.160;14.768;2023-03-26T08:54:41;98392.06;;;11.14;73.54
46876;BME280;32866;50.160;14.768;2023-03-26T08:59:56;98383.50;;;11.61;71.59
46876;BME280;32866;50.160;14.768;2023-03-26T09:03:06;98378.50;;;12.43;70.37
46876;BME280;32866;50.160;14.768;2023-03-26T09:26:26;98337.53;;;12.75;62.14
46876;BME280;32866;50.160;14.768;2023-03-26T09:31:41;98327.28;;;13.11;61.88
46876;BME280;32866;50.160;14.768;2023-03-26T09:36:53;98314.69;;;14.56;56.80
46876;BME280;32866;50.160;14.768;2023-03-26T09:39:35;98316.16;;;14.89;55.18
46876;BME280;32866;50.160;14.768;2023-03-26T09:42:23;98307.09;;;14.82;53.16
46876;BME280;32866;50.160;14.768;2023-03-26T09:50:11;98304.31;;;15.26;52.36
46876;BME280;32866;50.160;14.768;2023-03-26T10:10:07;98293.22;;;14.28;53.71
46876;BME280;32866;50.160;14.768;2023-03-26T10:12:42;98289.53;;;14.10;54.49
46876;BME280;32866;50.160;14.768;2023-03-26T10:17:53;98277.97;;;13.75;54.50
46876;BME280;32866;50.160;14.768;2023-03-26T10:28:01;98269.47;;;14.79;53.59
46876;BME280;32866;50.160;14.768;2023-03-26T10:35:38;98249.28;;;14.19;56.29
46876;BME280;32866;50.160;14.768;2023-03-26T10:46:03;98237.09;;;13.67;58.43
46876;BME280;32866;50.160;14.768;2023-03-26T10:59:06;98223.13;;;14.40;52.42
46876;BME280;32866;50.160;14.768;2023-03-26T11:27:26;98201.28;;;12.68;58.47
46876;BME280;32866;50.160;14.768;2023-03-26T11:35:06;98180.19;;;13.85;53.87
46876;BME280;32866;50.160;14.768;2023-03-26T11:38:17;98172.94;;;13.87;55.15
46876;BME280;32866;50.160;14.768;2023-03-26T11:40:23;98174.25;;;13.60;55.41
46876;BME280;32866;50.160;14.768;2023-03-26T11:42:50;98175.91;;;13.78;59.66
46876;BME280;32866;50.160;14.768;2023-03-26T11:45:18;98179.44;;;14.22;54.74
46876;BME280;32866;50.160;14.768;2023-03-26T11:47:47;98166.72;;;13.92;55.54
46876;BME280;32866;50.160;14.768;2023-03-26T11:50:15;98166.19;;;13.83;55.84
46876;BME280;32866;50.160;14.768;2023-03-26T11:52:42;98159.16;;;13.82;55.56
46876;BME280;32866;50.160;14.768;2023-03-26T11:55:10;98160.59;;;13.71;57.71
46876;BME280;32866;50.160;14.768;2023-03-26T11:57:35;98148.34;;;14.16;54.06
46876;BME280;32866;50.160;14.768;2023-03-26T12:00:05;98138.50;;;14.46;55.08
46876;BME280;32866;50.160;14.768;2023-03-26T12:02:42;98139.16;;;14.30;53.81
46876;BME280;32866;50.160;14.768;2023-03-26T12:05:20;98147.00;;;14.00;54.48
46876;BME280;32866;50.160;14.768;2023-03-26T12:12:52;98147.09;;;14.60;51.87
46876;BME280;32866;50.160;14.768;2023-03-26T12:15:19;98140.38;;;14.18;52.45
46876;BME280;32866;50.160;14.768;2023-03-26T12:17:45;98138.06;;;14.59;51.65
46876;BME280;32866;50.160;14.768;2023-03-26T12:20:25;98134.75;;;14.50;50.18
46876;BME280;32866;50.160;14.768;2023-03-26T12:22:54;98130.56;;;14.60;51.06
46876;BME280;32866;50.160;14.768;2023-03-26T12:25:23;98143.31;;;14.08;51.15
46876;BME280;32866;50.160;14.768;2023-03-26T12:30:25;98133.84;;;13.78;52.77
46876;BME280;32866;50.160;14.768;2023-03-26T12:32:51;98138.69;;;13.88;53.30
46876;BME280;32866;50.160;14.768;2023-03-26T12:35:18;98137.09;;;13.76;53.50
46876;BME280;32866;50.160;14.768;2023-03-26T12:37:46;98138.19;;;13.52;53.09
46876;BME280;32866;50.160;14.768;2023-03-26T12:42:45;98136.38;;;12.97;53.86
46876;BME280;32866;50.160;14.768;2023-03-26T12:45:15;98139.50;;;13.10;52.85
46876;BME280;32866;50.160;14.768;2023-03-26T12:47:40;98140.50;;;13.07;51.04
46876;BME280;32866;50.160;14.768;2023-03-26T12:50:07;98142.38;;;12.75;50.40
46876;BME280;32866;50.160;14.768;2023-03-26T12:57:50;98133.03;;;12.87;53.62
46876;BME280;32866;50.160;14.768;2023-03-26T13:00:24;98140.00;;;13.09;55.69
46876;BME280;32866;50.160;14.768;2023-03-26T13:10:59;98126.97;;;12.83;53.12
46876;BME280;32866;50.160;14.768;2023-03-26T13:16:06;98121.59;;;12.94;53.55
46876;BME280;32866;50.160;14.768;2023-03-26T13:18:42;98119.06;;;12.91;54.14
46876;BME280;32866;50.160;14.768;2023-03-26T13:21:21;98117.66;;;12.75;52.99
46876;BME280;32866;50.160;14.768;2023-03-26T13:23:59;98126.78;;;12.66;52.03
46876;BME280;32866;50.160;14.768;2023-03-26T13:31:49;98127.63;;;10.62;73.43
46876;BME280;32866;50.160;14.768;2023-03-26T13:44:46;98136.47;;;9.32;100.00
46876;BME280;32866;50.160;14.768;2023-03-26T13:47:15;98139.72;;;8.94;100.00
46876;BME280;32866;50.160;14.768;2023-03-26T13:49:43;98139.09;;;8.99;100.00
46876;BME280;32866;50.160;14.768;2023-03-26T13:52:27;98136.50;;;9.04;100.00
46876;BME280;32866;50.160;14.768;2023-03-26T13:55:02;98137.41;;;9.01;100.00
46876;BME280;32866;50.160;14.768;2023-03-26T13:57:32;98138.94;;;9.02;100.00
46876;BME280;32866;50.160;14.768;2023-03-26T14:00:09;98132.13;;;8.79;100.00
46876;BME280;32866;50.160;14.768;2023-03-26T14:05:21;98128.31;;;8.95;100.00
46876;BME280;32866;50.160;14.768;2023-03-26T14:10:15;98119.16;;;9.26;100.00
46876;BME280;32866;50.160;14.768;2023-03-26T14:17:47;98120.53;;;9.31;100.00
46876;BME280;32866;50.160;14.768;2023-03-26T14:25:26;98125.03;;;9.43;100.00
46876;BME280;32866;50.160;14.768;2023-03-26T14:33:11;98118.88;;;9.15;100.00
46876;BME280;32866;50.160;14.768;2023-03-26T14:35:51;98118.75;;;9.09;100.00
46876;BME280;32866;50.160;14.768;2023-03-26T14:40:48;98102.50;;;8.96;100.00
46876;BME280;32866;50.160;14.768;2023-03-26T14:43:28;98109.03;;;8.89;100.00
46876;BME280;32866;50.160;14.768;2023-03-26T14:46:15;98108.88;;;8.93;100.00
46876;BME280;32866;50.160;14.768;2023-03-26T14:49:02;98114.22;;;8.97;100.00
46876;BME280;32866;50.160;14.768;2023-03-26T14:54:04;98106.59;;;9.10;100.00
46876;BME280;32866;50.160;14.768;2023-03-26T15:17:06;98091.00;;;8.64;100.00
46876;BME280;32866;50.160;14.768;2023-03-26T15:27:49;98082.97;;;8.61;100.00
46876;BME280;32866;50.160;14.768;2023-03-26T15:43:22;98072.66;;;8.46;100.00
46876;BME280;32866;50.160;14.768;2023-03-26T15:51:36;98065.53;;;8.49;100.00
46876;BME280;32866;50.160;14.768;2023-03-26T16:12:25;98032.16;;;8.08;100.00
46876;BME280;32866;50.160;14.768;2023-03-26T16:20:27;98040.16;;;8.02;100.00
46876;BME280;32866;50.160;14.768;2023-03-26T16:23:00;98039.19;;;7.68;100.00
46876;BME280;32866;50.160;14.768;2023-03-26T16:30:34;98031.03;;;7.87;100.00
46876;BME280;32866;50.160;14.768;2023-03-26T16:33:13;98036.41;;;7.59;100.00
46876;BME280;32866;50.160;14.768;2023-03-26T16:38:10;98035.75;;;7.46;100.00
46876;BME280;32866;50.160;14.768;2023-03-26T16:40:58;98043.69;;;7.53;100.00
46876;BME280;32866;50.160;14.768;2023-03-26T16:43:25;98041.56;;;7.48;100.00
46876;BME280;32866;50.160;14.768;2023-03-26T16:53:41;98042.72;;;7.37;100.00
46876;BME280;32866;50.160;14.768;2023-03-26T16:58:48;98041.59;;;7.66;100.00
46876;BME280;32866;50.160;14.768;2023-03-26T17:19:28;98044.16;;;7.20;100.00
46876;BME280;32866;50.160;14.768;2023-03-26T17:22:11;98045.34;;;7.19;100.00
46876;BME280;32866;50.160;14.768;2023-03-26T17:24:49;98046.28;;;7.25;100.00
46876;BME280;32866;50.160;14.768;2023-03-26T17:27:28;98042.63;;;7.19;100.00
46876;BME280;32866;50.160;14.768;2023-03-26T17:32:23;98047.41;;;7.37;100.00
46876;BME280;32866;50.160;14.768;2023-03-26T17:47:11;98042.38;;;7.26;100.00
46876;BME280;32866;50.160;14.768;2023-03-26T17:49:40;98050.16;;;7.05;100.00
46876;BME280;32866;50.160;14.768;2023-03-26T17:52:21;98053.22;;;7.17;100.00
46876;BME280;32866;50.160;14.768;2023-03-26T17:54:49;98050.53;;;7.26;100.00
46876;BME280;32866;50.160;14.768;2023-03-26T17:57:20;98048.72;;;7.23;100.00
46876;BME280;32866;50.160;14.768;2023-03-26T17:59:46;98046.94;;;7.29;100.00
46876;BME280;32866;50.160;14.768;2023-03-26T18:02:35;98043.88;;;7.27;100.00
46876;BME280;32866;50.160;14.768;2023-03-26T18:04:59;98047.19;;;7.22;100.00
46876;BME280;32866;50.160;14.768;2023-03-26T18:12:53;98045.59;;;7.02;100.00
46876;BME280;32866;50.160;14.768;2023-03-26T18:17:51;98049.78;;;6.94;100.00
46876;BME280;32866;50.160;14.768;2023-03-26T18:20:24;98043.88;;;6.96;100.00
46876;BME280;32866;50.160;14.768;2023-03-26T18:22:51;98043.81;;;6.86;100.00
46876;BME280;32866;50.160;14.768;2023-03-26T18:25:21;98040.44;;;7.04;100.00
46876;BME280;32866;50.160;14.768;2023-03-26T18:27:46;98036.44;;;7.18;100.00
46876;BME280;32866;50.160;14.768;2023-03-26T18:30:13;98046.94;;;7.07;100.00
46876;BME280;32866;50.160;14.768;2023-03-26T18:32:45;98044.34;;;6.94;100.00
46876;BME280;32866;50.160;14.768;2023-03-26T18:35:13;98054.84;;;6.83;100.00
46876;BME280;32866;50.160;14.768;2023-03-26T18:37:41;98044.22;;;6.76;100.00
46876;BME280;32866;50.160;14.768;2023-03-26T18:40:20;98039.50;;;6.98;100.00
46876;BME280;32866;50.160;14.768;2023-03-26T18:47:47;98037.25;;;6.75;100.00
46876;BME280;32866;50.160;14.768;2023-03-26T18:50:15;98035.84;;;6.70;100.00
46876;BME280;32866;50.160;14.768;2023-03-26T18:52:41;98034.66;;;6.71;100.00
46876;BME280;32866;50.160;14.768;2023-03-26T18:55:12;98031.06;;;6.74;100.00
46876;BME280;32866;50.160;14.768;2023-03-26T18:57:38;98036.06;;;6.76;100.00
46876;BME280;32866;50.160;14.768;2023-03-26T19:00:24;98036.97;;;6.82;100.00
46876;BME280;32866;50.160;14.768;2023-03-26T19:02:50;98031.53;;;7.04;100.00
46876;BME280;32866;50.160;14.768;2023-03-26T19:05:18;98027.44;;;6.77;100.00
46876;BME280;32866;50.160;14.768;2023-03-26T19:07:44;98018.63;;;6.73;100.00
46876;BME280;32866;50.160;14.768;2023-03-26T19:10:13;98016.94;;;6.66;100.00
46876;BME280;32866;50.160;14.768;2023-03-26T19:12:40;98010.22;;;6.58;100.00
46876;BME280;32866;50.160;14.768;2023-03-26T19:15:08;98001.13;;;6.52;100.00
46876;BME280;32866;50.160;14.768;2023-03-26T19:17:37;97992.44;;;6.44;100.00